Time;durP1;ratioP1;P1;durP2;ratioP2;P2;SDS_P1;SDS_P2;PMS_P1;PMS_P2;Temp;Humidity;BMP_temperature;BMP_pressure;BME280_temperature;BME280_humidity;BME280_pressure;Samples;Min_cycle;Max_cycle;Signal;HPM_P1;HPM_P2
2023/01/07 00:00:28;;;;;;;;;;;;;;;12.41;70.97;101505.13;5007869;28;20354;-79
2023/01/07 00:02:53;;;;;;;;;;;;;;;12.41;71.19;101504.31;4999530;28;19922;-81
2023/01/07 00:05:19;;;;;;;;;;;;;;;12.41;71.10;101505.13;5010373;28;19917;-79
2023/01/07 00:07:44;;;;;;;;;;;;;;;12.41;71.05;101498.88;5006223;28;20340;-79
2023/01/07 00:10:09;;;;;;;;;;;;;;;12.40;71.05;101503.50;5013265;28;19926;-79
2023/01/07 00:12:34;;;;;;;;;;;;;;;12.40;71.19;101498.06;5013081;28;20041;-78
2023/01/07 00:14:59;;;;;;;;;;;;;;;12.39;71.05;101496.41;5004374;28;19921;-77
2023/01/07 00:17:25;;;;;;;;;;;;;;;12.39;70.97;101488.28;5009917;28;19926;-79
2023/01/07 00:19:50;;;;;;;;;;;;;;;12.39;71.11;101490.16;5020031;28;19929;-78
2023/01/07 00:22:15;;;;;;;;;;;;;;;12.38;71.07;101489.34;5011772;28;19929;-78
2023/01/07 00:24:41;;;;;;;;;;;;;;;12.38;71.15;101485.81;5009398;28;19918;-76
2023/01/07 00:27:06;;;;;;;;;;;;;;;12.38;71.14;101488.53;4994512;28;19922;-78
2023/01/07 00:29:31;;;;;;;;;;;;;;;12.37;71.01;101479.56;4995362;28;19926;-78
2023/01/07 00:31:56;;;;;;;;;;;;;;;12.37;71.06;101486.88;4997016;28;19921;-78
2023/01/07 00:34:22;;;;;;;;;;;;;;;12.36;71.31;101480.63;5002068;28;20407;-78
2023/01/07 00:36:47;;;;;;;;;;;;;;;12.36;71.00;101480.63;4994066;28;20294;-79
2023/01/07 00:39:20;;;;;;;;;;;;;;;12.35;71.02;101473.56;4998502;28;19932;-79
2023/01/07 00:44:29;;;;;;;;;;;;;;;12.35;71.11;101465.44;5000540;28;19929;-79
2023/01/07 00:46:55;;;;;;;;;;;;;;;12.34;70.97;101466.50;5012824;28;19925;-79
2023/01/07 00:49:23;;;;;;;;;;;;;;;12.33;71.12;101457.53;5012718;28;19917;-79
2023/01/07 00:51:48;;;;;;;;;;;;;;;12.32;71.29;101453.19;5009068;28;19929;-79
2023/01/07 00:54:13;;;;;;;;;;;;;;;12.34;71.04;101456.47;5013043;28;19976;-80
2023/01/07 00:56:39;;;;;;;;;;;;;;;12.33;71.21;101448.59;5012402;28;20016;-78
2023/01/07 00:59:04;;;;;;;;;;;;;;;12.33;71.27;101454.03;5012831;28;19924;-80
2023/01/07 01:01:29;;;;;;;;;;;;;;;12.32;71.11;101446.94;5012655;28;20286;-80
2023/01/07 01:03:54;;;;;;;;;;;;;;;12.32;70.97;101441.50;5011240;28;19973;-79
2023/01/07 01:06:20;;;;;;;;;;;;;;;12.32;71.36;101446.94;5011654;28;20512;-78
2023/01/07 01:08:45;;;;;;;;;;;;;;;12.31;71.08;101445.28;5013231;28;19925;-79
2023/01/07 01:11:12;;;;;;;;;;;;;;;12.29;71.23;101442.81;4994109;28;19922;-79
2023/01/07 01:13:37;;;;;;;;;;;;;;;12.29;71.10;101434.69;4995597;28;19918;-79
2023/01/07 01:16:06;;;;;;;;;;;;;;;12.31;71.19;101448.81;5000587;28;19932;-80
2023/01/07 01:18:31;;;;;;;;;;;;;;;12.29;71.10;101436.56;4993882;28;19960;-79
2023/01/07 01:21:02;;;;;;;;;;;;;;;12.29;70.86;101439.28;5016975;28;20012;-80
2023/01/07 01:23:27;;;;;;;;;;;;;;;12.29;71.00;101436.56;5013807;28;20012;-79
2023/01/07 01:26:00;;;;;;;;;;;;;;;12.28;71.11;101430.34;5006294;28;20557;-79
2023/01/07 01:28:25;;;;;;;;;;;;;;;12.28;71.11;101430.34;5012570;28;20369;-80
2023/01/07 01:30:54;;;;;;;;;;;;;;;12.27;70.95;101426.00;5010950;28;19922;-79
2023/01/07 01:33:19;;;;;;;;;;;;;;;12.28;71.08;101424.09;5002563;28;19941;-80
2023/01/07 01:35:45;;;;;;;;;;;;;;;12.26;71.16;101424.34;5003364;28;20111;-78
2023/01/07 01:38:10;;;;;;;;;;;;;;;12.26;71.05;101423.50;5011865;28;20401;-80
2023/01/07 01:40:35;;;;;;;;;;;;;;;12.26;71.17;101418.91;5012600;28;20012;-79
2023/01/07 01:43:00;;;;;;;;;;;;;;;12.25;71.20;101417.28;4993065;28;19918;-77
2023/01/07 01:45:26;;;;;;;;;;;;;;;12.25;71.08;101419.16;4997060;28;19982;-79
2023/01/07 01:47:54;;;;;;;;;;;;;;;12.24;71.14;101412.09;4997144;28;20267;-79
2023/01/07 01:50:25;;;;;;;;;;;;;;;12.24;71.25;101412.09;4993734;28;19965;-78
2023/01/07 01:52:57;;;;;;;;;;;;;;;12.23;71.04;101411.28;5006459;28;19922;-79
2023/01/07 01:55:24;;;;;;;;;;;;;;;12.23;71.07;101416.69;4994680;28;19921;-80
2023/01/07 01:57:52;;;;;;;;;;;;;;;12.23;71.22;101415.88;5009938;28;19929;-78
2023/01/07 02:00:18;;;;;;;;;;;;;;;12.22;71.21;101411.50;5013028;28;19917;-79
2023/01/07 02:02:45;;;;;;;;;;;;;;;12.21;71.34;101412.56;5010889;28;19932;-78
2023/01/07 02:05:11;;;;;;;;;;;;;;;12.20;71.22;101406.34;5012233;28;19925;-79
2023/01/07 02:07:36;;;;;;;;;;;;;;;12.20;71.22;101411.75;5011730;28;20328;-80
2023/01/07 02:10:10;;;;;;;;;;;;;;;12.20;71.27;101408.22;4992193;28;19922;-79
2023/01/07 02:12:48;;;;;;;;;;;;;;;12.18;71.18;101400.31;5005014;28;20424;-79
2023/01/07 02:15:31;;;;;;;;;;;;;;;12.18;71.06;101410.34;5012649;28;19925;-80
2023/01/07 02:18:02;;;;;;;;;;;;;;;12.17;71.08;101406.81;5008095;28;19925;-79
2023/01/07 02:20:36;;;;;;;;;;;;;;;12.17;71.07;101400.56;4993801;28;19929;-78
2023/01/07 02:23:07;;;;;;;;;;;;;;;12.16;71.10;101404.34;5009392;28;19944;-79
2023/01/07 02:25:47;;;;;;;;;;;;;;;12.15;71.21;101408.94;5003103;28;19922;-79
2023/01/07 02:28:31;;;;;;;;;;;;;;;12.13;71.15;101409.16;5004892;28;19921;-79
2023/01/07 02:31:02;;;;;;;;;;;;;;;12.13;71.00;101409.16;5009454;28;19932;-79
2023/01/07 02:33:33;;;;;;;;;;;;;;;12.13;71.12;101411.03;5011769;28;19953;-79
2023/01/07 02:35:58;;;;;;;;;;;;;;;12.12;71.31;101407.53;5011486;28;19917;-79
2023/01/07 02:38:32;;;;;;;;;;;;;;;12.11;71.16;101411.28;5008322;28;20020;-80
2023/01/07 02:41:07;;;;;;;;;;;;;;;12.11;71.26;101407.75;5006643;28;19936;-80
2023/01/07 02:43:51;;;;;;;;;;;;;;;12.11;71.14;101407.75;5010884;28;19921;-80
2023/01/07 02:46:16;;;;;;;;;;;;;;;12.10;71.15;101397.97;4992714;28;19968;-80
2023/01/07 02:48:43;;;;;;;;;;;;;;;12.08;71.30;101395.50;4992689;28;19961;-77
2023/01/07 02:51:08;;;;;;;;;;;;;;;12.09;71.09;101396.31;4992273;28;19922;-78
2023/01/07 02:53:33;;;;;;;;;;;;;;;12.08;71.22;101390.09;5006163;28;19948;-79
2023/01/07 02:56:01;;;;;;;;;;;;;;;12.08;71.01;101389.28;4999155;28;19961;-78
2023/01/07 02:58:27;;;;;;;;;;;;;;;12.07;71.08;101393.88;4996400;28;19925;-79
2023/01/07 03:00:55;;;;;;;;;;;;;;;12.06;71.02;101381.38;5004717;28;19921;-77
2023/01/07 03:03:20;;;;;;;;;;;;;;;12.06;71.08;101375.13;5012201;28;19946;-80
2023/01/07 03:05:54;;;;;;;;;;;;;;;12.05;71.28;101379.72;5001821;28;20382;-80
2023/01/07 03:08:35;;;;;;;;;;;;;;;12.05;71.18;101377.03;5011197;28;20370;-79
2023/01/07 03:11:05;;;;;;;;;;;;;;;12.04;71.13;101374.53;4995625;28;19929;-79
2023/01/07 03:13:36;;;;;;;;;;;;;;;12.03;71.12;101368.31;5012135;28;19922;-79
2023/01/07 03:16:04;;;;;;;;;;;;;;;12.03;71.04;101364.78;5007701;28;19957;-79
2023/01/07 03:18:32;;;;;;;;;;;;;;;12.03;71.08;101359.38;5015214;28;20013;-80
2023/01/07 03:21:00;;;;;;;;;;;;;;;12.01;71.09;101356.88;5014814;28;20273;-79
2023/01/07 03:23:27;;;;;;;;;;;;;;;11.99;71.11;101348.16;5012959;28;20391;-80
2023/01/07 03:25:54;;;;;;;;;;;;;;;12.01;71.22;101350.66;5001187;28;19921;-79
2023/01/07 03:28:23;;;;;;;;;;;;;;;11.99;71.23;101345.47;5013740;28;19969;-80
2023/01/07 03:30:50;;;;;;;;;;;;;;;11.98;71.01;101335.72;5014418;28;20015;-80
2023/01/07 03:33:20;;;;;;;;;;;;;;;11.98;71.27;101333.00;5013328;28;19933;-79
2023/01/07 03:35:47;;;;;;;;;;;;;;;11.98;71.08;101340.31;5014354;28;20001;-80
2023/01/07 03:38:14;;;;;;;;;;;;;;;11.97;71.12;101338.63;5002726;28;19921;-78
2023/01/07 03:40:39;;;;;;;;;;;;;;;11.96;71.20;101332.41;5014633;28;19917;-78
2023/01/07 03:43:10;;;;;;;;;;;;;;;11.95;71.15;101325.34;5013688;28;19972;-79
2023/01/07 03:45:36;;;;;;;;;;;;;;;11.95;71.12;101329.97;5013963;28;20171;-80
2023/01/07 03:48:01;;;;;;;;;;;;;;;11.95;71.13;101324.53;5013560;28;20342;-80
2023/01/07 03:50:26;;;;;;;;;;;;;;;11.94;71.22;101318.28;5014767;28;19921;-79
2023/01/07 03:52:51;;;;;;;;;;;;;;;11.93;71.13;101313.94;4997310;28;19921;-80
2023/01/07 03:55:17;;;;;;;;;;;;;;;11.93;71.25;101322.06;5010317;28;20099;-79
2023/01/07 03:57:42;;;;;;;;;;;;;;;11.93;71.20;101316.66;5013119;28;19922;-79
2023/01/07 04:00:10;;;;;;;;;;;;;;;11.93;71.00;101319.34;5013881;28;20012;-79
2023/01/07 04:02:35;;;;;;;;;;;;;;;11.93;71.06;101318.53;5014400;28;20012;-80
2023/01/07 04:05:00;;;;;;;;;;;;;;;11.91;71.09;101313.34;5013583;28;20324;-79
2023/01/07 04:07:26;;;;;;;;;;;;;;;11.91;71.09;101311.47;5009609;28;19929;-79
2023/01/07 04:09:51;;;;;;;;;;;;;;;11.90;70.92;101306.31;5000745;28;19922;-79
2023/01/07 04:12:17;;;;;;;;;;;;;;;11.89;71.17;101302.78;5009279;28;19940;-78
2023/01/07 04:14:42;;;;;;;;;;;;;;;11.88;71.09;101301.13;5023994;28;19953;-80
2023/01/07 04:17:07;;;;;;;;;;;;;;;11.88;71.08;101301.13;5012781;28;19930;-79
2023/01/07 04:19:32;;;;;;;;;;;;;;;11.89;71.15;101302.78;5012453;28;19921;-79
2023/01/07 04:21:58;;;;;;;;;;;;;;;11.88;71.23;101300.28;5014149;28;19930;-79
2023/01/07 04:24:23;;;;;;;;;;;;;;;11.88;71.23;101293.00;4999188;28;19918;-79
2023/01/07 04:26:48;;;;;;;;;;;;;;;11.87;71.07;101288.66;5002780;28;20274;-78
2023/01/07 04:29:14;;;;;;;;;;;;;;;11.86;71.15;101286.97;5011174;28;19922;-80
2023/01/07 04:31:39;;;;;;;;;;;;;;;11.86;71.13;101286.97;5014793;28;19918;-79
2023/01/07 04:34:04;;;;;;;;;;;;;;;11.86;71.22;101283.44;5013746;28;19984;-79
2023/01/07 04:36:30;;;;;;;;;;;;;;;11.83;70.98;101268.50;5013657;28;19960;-79
2023/01/07 04:38:55;;;;;;;;;;;;;;;11.84;70.98;101272.00;5026451;28;19921;-79
2023/01/07 04:41:20;;;;;;;;;;;;;;;11.84;71.18;101267.44;5013731;28;20393;-79
2023/01/07 04:43:46;;;;;;;;;;;;;;;11.83;71.05;101263.06;5013942;28;19976;-79
2023/01/07 04:46:11;;;;;;;;;;;;;;;11.84;71.12;101266.59;5007255;28;20366;-79
2023/01/07 04:48:36;;;;;;;;;;;;;;;11.83;71.13;101264.97;5010207;28;19983;-80
2023/01/07 04:51:01;;;;;;;;;;;;;;;11.82;71.06;101261.44;5007002;28;20366;-78
2023/01/07 04:53:27;;;;;;;;;;;;;;;11.81;70.99;101259.78;5013036;28;20392;-79
2023/01/07 04:55:52;;;;;;;;;;;;;;;11.81;71.07;101261.66;4996401;28;19922;-79
2023/01/07 04:58:18;;;;;;;;;;;;;;;11.81;71.23;101250.84;5012345;28;19925;-80
2023/01/07 05:00:43;;;;;;;;;;;;;;;11.81;71.16;101248.94;5002141;28;20445;-80
2023/01/07 05:03:09;;;;;;;;;;;;;;;11.81;71.14;101253.53;5012919;28;20017;-80
2023/01/07 05:05:34;;;;;;;;;;;;;;;11.80;71.07;101239.19;5013389;28;19921;-80
2023/01/07 05:07:59;;;;;;;;;;;;;;;11.80;71.06;101241.91;5010292;28;19933;-79
2023/01/07 05:10:24;;;;;;;;;;;;;;;11.78;71.12;101237.78;5003668;28;20475;-80
2023/01/07 05:12:50;;;;;;;;;;;;;;;11.79;71.09;101242.13;5011060;28;19921;-79
2023/01/07 05:15:15;;;;;;;;;;;;;;;11.79;71.21;101234.00;5012290;28;19964;-80
2023/01/07 05:17:40;;;;;;;;;;;;;;;11.78;71.19;101241.31;5012497;28;20370;-79
2023/01/07 05:20:07;;;;;;;;;;;;;;;11.78;71.10;101235.91;5007519;28;19929;-79
2023/01/07 05:22:32;;;;;;;;;;;;;;;11.77;71.25;101228.84;5004430;28;20012;-78
2023/01/07 05:24:57;;;;;;;;;;;;;;;11.77;71.32;101228.84;4996607;28;20599;-79
2023/01/07 05:27:23;;;;;;;;;;;;;;;11.77;71.39;101225.31;4992456;28;20405;-79
2023/01/07 05:29:48;;;;;;;;;;;;;;;11.76;71.39;101227.19;5008145;28;19925;-78
2023/01/07 05:32:13;;;;;;;;;;;;;;;11.77;71.01;101222.59;5011361;28;19972;-79
2023/01/07 05:34:38;;;;;;;;;;;;;;;11.77;71.04;101225.31;5010963;28;20388;-82
2023/01/07 05:37:04;;;;;;;;;;;;;;;11.77;71.05;101222.59;5002816;28;19917;-80
2023/01/07 05:39:29;;;;;;;;;;;;;;;11.77;71.26;101219.88;5001380;28;19925;-79
2023/01/07 05:41:54;;;;;;;;;;;;;;;11.77;71.12;101222.59;5012005;28;19932;-79
2023/01/07 05:44:19;;;;;;;;;;;;;;;11.75;71.12;101222.03;5027348;28;20325;-80
2023/01/07 05:46:45;;;;;;;;;;;;;;;11.75;71.08;101213.91;5010407;28;19979;-78
2023/01/07 05:49:10;;;;;;;;;;;;;;;11.75;71.09;101224.75;5011191;28;19932;-78
2023/01/07 05:51:35;;;;;;;;;;;;;;;11.75;71.28;101219.31;5012144;28;20357;-79
2023/01/07 05:54:00;;;;;;;;;;;;;;;11.73;71.09;101200.59;5012302;28;20012;-80
2023/01/07 05:56:26;;;;;;;;;;;;;;;11.73;71.04;101208.72;5013321;28;19933;-79
2023/01/07 05:58:51;;;;;;;;;;;;;;;11.73;71.08;101203.31;4992565;28;19921;-78
2023/01/07 06:01:16;;;;;;;;;;;;;;;11.73;71.12;101197.91;5009668;28;19930;-79
2023/01/07 06:03:42;;;;;;;;;;;;;;;11.73;71.15;101194.38;5011565;28;19980;-80
2023/01/07 06:06:07;;;;;;;;;;;;;;;11.72;71.19;101192.72;5006720;28;19926;-79
2023/01/07 06:08:35;;;;;;;;;;;;;;;11.73;71.09;101191.69;4992213;28;19925;-79
2023/01/07 06:11:01;;;;;;;;;;;;;;;11.72;71.02;101190.00;4999232;28;19980;-81
2023/01/07 06:13:27;;;;;;;;;;;;;;;11.71;70.89;101191.91;5003547;28;19930;-81
2023/01/07 06:15:52;;;;;;;;;;;;;;;11.70;71.10;101188.38;4993064;28;19922;-80
2023/01/07 06:18:17;;;;;;;;;;;;;;;11.70;70.88;101188.38;5006128;28;19933;-80
2023/01/07 06:20:43;;;;;;;;;;;;;;;11.70;70.87;101180.25;5005658;28;19972;-80
2023/01/07 06:23:09;;;;;;;;;;;;;;;11.69;71.16;101175.94;5009140;28;19926;-81
2023/01/07 06:25:34;;;;;;;;;;;;;;;11.70;71.20;101168.63;5011373;28;20369;-81
2023/01/07 06:27:59;;;;;;;;;;;;;;;11.69;70.90;101167.81;5011282;28;20457;-81
2023/01/07 06:30:25;;;;;;;;;;;;;;;11.69;70.99;101175.06;5008680;28;19921;-80
2023/01/07 06:32:50;;;;;;;;;;;;;;;11.69;70.86;101170.50;5011003;28;20013;-80
2023/01/07 06:35:15;;;;;;;;;;;;;;;11.69;71.12;101170.50;5011196;28;19921;-80
2023/01/07 06:37:41;;;;;;;;;;;;;;;11.68;71.04;101173.44;5011884;28;19948;-81
2023/01/07 06:40:07;;;;;;;;;;;;;;;11.68;71.03;101166.13;5010589;28;20008;-80
2023/01/07 06:42:32;;;;;;;;;;;;;;;11.69;71.02;101156.13;5009156;28;20381;-80
2023/01/07 06:44:57;;;;;;;;;;;;;;;11.68;71.14;101158.03;5009512;28;19957;-81
2023/01/07 06:47:24;;;;;;;;;;;;;;;11.68;71.04;101157.22;4991776;28;20367;-80
2023/01/07 06:49:49;;;;;;;;;;;;;;;11.67;71.11;101150.97;5007918;28;19926;-79
2023/01/07 06:52:14;;;;;;;;;;;;;;;11.67;71.04;101156.41;5001222;28;19929;-79
2023/01/07 06:54:39;;;;;;;;;;;;;;;11.67;71.17;101148.28;5011115;28;20211;-82
2023/01/07 06:57:05;;;;;;;;;;;;;;;11.66;71.06;101148.50;4997675;28;19918;-79
2023/01/07 06:59:30;;;;;;;;;;;;;;;11.66;71.00;101160.13;4992037;28;19965;-80
2023/01/07 07:01:55;;;;;;;;;;;;;;;11.66;70.92;101157.44;4995321;28;19933;-80
2023/01/07 07:04:20;;;;;;;;;;;;;;;11.65;71.21;101144.97;5009306;28;20329;-79
2023/01/07 07:06:46;;;;;;;;;;;;;;;11.65;70.96;101142.28;5011778;28;19925;-79
2023/01/07 07:09:11;;;;;;;;;;;;;;;11.66;70.97;101143.09;5011742;28;19944;-79
2023/01/07 07:11:36;;;;;;;;;;;;;;;11.65;71.08;101144.97;5023334;28;19928;-80
2023/01/07 07:14:02;;;;;;;;;;;;;;;11.65;71.18;101139.56;4999826;28;20594;-79
2023/01/07 07:16:28;;;;;;;;;;;;;;;11.65;71.09;101131.44;4999123;28;19922;-80
2023/01/07 07:18:53;;;;;;;;;;;;;;;11.65;71.08;101128.75;4993747;28;19933;-81
2023/01/07 07:21:18;;;;;;;;;;;;;;;11.64;71.12;101126.25;5011179;28;19928;-79
2023/01/07 07:23:43;;;;;;;;;;;;;;;11.64;71.04;101131.69;5024055;28;19944;-81
2023/01/07 07:26:09;;;;;;;;;;;;;;;11.63;71.08;101117.34;5004593;28;19932;-79
2023/01/07 07:28:34;;;;;;;;;;;;;;;11.63;71.11;101124.63;4996237;28;19929;-78
2023/01/07 07:31:00;;;;;;;;;;;;;;;11.62;70.99;101112.19;4992069;28;19930;-80
2023/01/07 07:33:25;;;;;;;;;;;;;;;11.62;71.19;101113.00;4992767;28;20012;-80
2023/01/07 07:35:50;;;;;;;;;;;;;;;11.62;71.04;101106.78;5002589;28;20293;-78
2023/01/07 07:38:17;;;;;;;;;;;;;;;11.62;71.11;101110.28;5008797;28;19930;-81
2023/01/07 07:40:42;;;;;;;;;;;;;;;11.60;71.00;101109.69;4991788;28;20020;-80
2023/01/07 07:43:07;;;;;;;;;;;;;;;11.61;71.04;101111.34;5004714;28;20012;-78
2023/01/07 07:45:33;;;;;;;;;;;;;;;11.60;71.07;101107.00;5004444;28;20001;-79
2023/01/07 07:47:58;;;;;;;;;;;;;;;11.59;70.89;101102.66;5005890;28;19918;-79
2023/01/07 07:50:23;;;;;;;;;;;;;;;11.59;70.96;101101.81;4995092;28;19988;-78
2023/01/07 07:52:48;;;;;;;;;;;;;;;11.59;70.92;101108.06;5003371;28;19929;-80
2023/01/07 07:55:14;;;;;;;;;;;;;;;11.59;71.05;101101.81;5009292;28;19943;-79
2023/01/07 07:57:39;;;;;;;;;;;;;;;11.58;70.84;101106.41;5012062;28;19988;-80
2023/01/07 08:00:05;;;;;;;;;;;;;;;11.58;70.97;101098.28;5015147;28;19991;-80
2023/01/07 08:02:30;;;;;;;;;;;;;;;11.58;70.95;101103.69;5013379;28;19918;-80
2023/01/07 08:04:55;;;;;;;;;;;;;;;11.57;71.19;101093.97;5012622;28;20393;-80
2023/01/07 08:07:21;;;;;;;;;;;;;;;11.58;71.02;101086.66;5018349;28;19933;-79
2023/01/07 08:09:46;;;;;;;;;;;;;;;11.56;71.13;101080.66;4997716;28;20337;-80
2023/01/07 08:12:11;;;;;;;;;;;;;;;11.56;71.12;101095.00;4997394;28;19922;-79
2023/01/07 08:14:36;;;;;;;;;;;;;;;11.56;71.03;101086.88;4995086;28;19933;-79
2023/01/07 08:17:02;;;;;;;;;;;;;;;11.55;71.07;101079.84;4996294;28;19934;-79
2023/01/07 08:19:27;;;;;;;;;;;;;;;11.54;70.81;101078.22;4996798;28;19925;-79
2023/01/07 08:21:52;;;;;;;;;;;;;;;11.55;70.90;101079.03;5011140;28;19921;-80
2023/01/07 08:24:17;;;;;;;;;;;;;;;11.54;70.99;101075.50;5023046;28;20012;-79
2023/01/07 08:26:43;;;;;;;;;;;;;;;11.53;70.94;101075.75;5011048;28;19926;-79
2023/01/07 08:29:08;;;;;;;;;;;;;;;11.54;70.87;101085.47;5002983;28;19976;-79
2023/01/07 08:31:33;;;;;;;;;;;;;;;11.53;70.93;101075.75;5011558;28;19929;-80
2023/01/07 08:33:59;;;;;;;;;;;;;;;11.53;71.00;101073.03;5009033;28;19921;-80
2023/01/07 08:36:24;;;;;;;;;;;;;;;11.52;71.09;101072.22;5005291;28;20415;-78
2023/01/07 08:38:50;;;;;;;;;;;;;;;11.51;71.01;101067.84;5009923;28;19921;-79
2023/01/07 08:41:16;;;;;;;;;;;;;;;11.51;71.07;101070.56;5011568;28;19921;-78
2023/01/07 08:43:43;;;;;;;;;;;;;;;11.51;70.92;101067.84;5007375;28;20029;-79
2023/01/07 08:46:09;;;;;;;;;;;;;;;11.50;70.98;101060.81;5007148;28;19952;-78
2023/01/07 08:48:34;;;;;;;;;;;;;;;11.51;70.91;101048.09;5002230;28;19922;-78
2023/01/07 08:51:00;;;;;;;;;;;;;;;11.50;70.92;101043.75;5009828;28;19928;-78
2023/01/07 08:53:25;;;;;;;;;;;;;;;11.50;70.99;101050.00;5007855;28;19999;-78
2023/01/07 08:55:50;;;;;;;;;;;;;;;11.50;70.97;101046.47;5005180;28;19922;-79
2023/01/07 08:58:15;;;;;;;;;;;;;;;11.50;70.94;101046.47;5008425;28;19922;-78
2023/01/07 09:00:41;;;;;;;;;;;;;;;11.50;71.06;101047.28;5008568;28;19974;-78
2023/01/07 09:03:06;;;;;;;;;;;;;;;11.48;70.99;101038.56;5005559;28;20337;-79
2023/01/07 09:05:31;;;;;;;;;;;;;;;11.50;70.86;101049.19;5007220;28;19973;-79
2023/01/07 09:07:56;;;;;;;;;;;;;;;11.50;70.97;101041.06;5001915;28;19937;-80
2023/01/07 09:10:22;;;;;;;;;;;;;;;11.49;70.94;101037.53;5008764;28;20015;-79
2023/01/07 09:12:48;;;;;;;;;;;;;;;11.48;71.00;101025.88;5007209;28;20029;-80
2023/01/07 09:15:13;;;;;;;;;;;;;;;11.50;70.95;101030.25;5006548;28;20091;-81
2023/01/07 09:17:38;;;;;;;;;;;;;;;11.50;71.11;101024.81;5005021;28;19937;-80
2023/01/07 09:20:04;;;;;;;;;;;;;;;11.48;70.73;101017.75;5006885;28;19921;-80
2023/01/07 09:22:33;;;;;;;;;;;;;;;11.49;70.85;101026.72;5005577;28;19929;-79
2023/01/07 09:24:58;;;;;;;;;;;;;;;11.50;70.81;101019.41;5007981;28;19987;-79
2023/01/07 09:27:25;;;;;;;;;;;;;;;11.50;70.85;101016.72;5005901;28;20350;-79
2023/01/07 09:29:51;;;;;;;;;;;;;;;11.50;70.79;101005.88;5003673;28;19936;-78
2023/01/07 09:32:16;;;;;;;;;;;;;;;11.50;70.89;101000.47;4992075;28;19921;-79
2023/01/07 09:34:41;;;;;;;;;;;;;;;11.50;70.77;100998.59;5008411;28;19922;-79
2023/01/07 09:37:07;;;;;;;;;;;;;;;11.49;70.91;100994.25;5008859;28;19952;-78
2023/01/07 09:39:32;;;;;;;;;;;;;;;11.49;70.60;100991.56;5006938;28;19933;-77
2023/01/07 09:42:02;;;;;;;;;;;;;;;11.49;71.00;100988.84;5013608;28;20501;-78
2023/01/07 09:44:43;;;;;;;;;;;;;;;11.49;70.68;100978.03;5007143;28;19928;-78
2023/01/07 09:47:10;;;;;;;;;;;;;;;11.50;70.71;100978.84;5006177;28;19980;-78
2023/01/07 09:49:35;;;;;;;;;;;;;;;11.50;70.88;100976.13;5006589;28;20023;-77
2023/01/07 09:52:05;;;;;;;;;;;;;;;11.48;70.74;100963.66;5008180;28;20354;-80
2023/01/07 09:54:34;;;;;;;;;;;;;;;11.50;70.70;100959.91;5009362;28;19929;-79
2023/01/07 09:57:00;;;;;;;;;;;;;;;11.48;70.74;100952.84;5007564;28;20020;-80
2023/01/07 09:59:26;;;;;;;;;;;;;;;11.48;70.59;100958.25;5005024;28;20458;-78
2023/01/07 10:01:51;;;;;;;;;;;;;;;11.48;70.80;100949.31;5006023;28;19930;-78
2023/01/07 10:04:16;;;;;;;;;;;;;;;11.48;70.77;100950.13;5010500;28;19921;-79
2023/01/07 10:06:47;;;;;;;;;;;;;;;11.48;70.57;100952.03;5007469;28;19921;-78
2023/01/07 10:09:13;;;;;;;;;;;;;;;11.49;70.74;100940.16;5003784;28;19940;-78
2023/01/07 10:11:44;;;;;;;;;;;;;;;11.49;70.68;100934.75;5007603;28;19921;-79
2023/01/07 10:14:27;;;;;;;;;;;;;;;11.49;70.41;100926.63;5004993;28;19953;-77
2023/01/07 10:17:04;;;;;;;;;;;;;;;11.48;70.70;100923.06;5005961;28;19967;-79
2023/01/07 10:19:38;;;;;;;;;;;;;;;11.48;70.39;100922.25;5008006;28;20329;-78
2023/01/07 10:22:15;;;;;;;;;;;;;;;11.48;70.65;100925.78;5020153;28;19972;-79
2023/01/07 10:24:42;;;;;;;;;;;;;;;11.49;70.42;100926.63;5009677;28;20354;-75
2023/01/07 10:27:11;;;;;;;;;;;;;;;11.50;70.65;100903.09;5008447;28;19921;-76
2023/01/07 10:29:41;;;;;;;;;;;;;;;11.50;70.51;100900.38;5004185;28;19929;-75
2023/01/07 10:32:16;;;;;;;;;;;;;;;11.49;70.62;100896.88;5002418;28;20005;-75
2023/01/07 10:34:44;;;;;;;;;;;;;;;11.49;70.38;100899.56;5006410;28;19929;-76
2023/01/07 10:37:12;;;;;;;;;;;;;;;11.47;70.36;100893.59;5007471;28;19918;-75
2023/01/07 10:39:46;;;;;;;;;;;;;;;11.47;70.21;100889.00;5008918;28;19925;-70
2023/01/07 10:42:11;;;;;;;;;;;;;;;11.47;70.28;100893.59;5004010;28;19929;-76
2023/01/07 10:44:49;;;;;;;;;;;;;;;11.48;69.83;100887.91;5008803;28;19926;-77
2023/01/07 10:47:17;;;;;;;;;;;;;;;11.48;69.89;100892.50;5007881;28;19921;-75
2023/01/07 10:50:01;;;;;;;;;;;;;;;11.48;70.01;100879.78;5005455;28;19957;-74
2023/01/07 10:52:44;;;;;;;;;;;;;;;11.47;70.07;100877.34;5000983;28;19932;-74
2023/01/07 10:55:24;;;;;;;;;;;;;;;11.48;69.88;100876.28;5007669;28;19928;-74
2023/01/07 10:57:50;;;;;;;;;;;;;;;11.48;70.03;100870.88;5007719;28;20008;-74
2023/01/07 11:00:16;;;;;;;;;;;;;;;11.47;69.87;100870.06;5005710;28;20028;-75
2023/01/07 11:02:43;;;;;;;;;;;;;;;11.49;69.76;100864.41;5005822;28;19921;-73
2023/01/07 11:05:10;;;;;;;;;;;;;;;11.49;69.87;100848.19;5005447;28;19957;-75
2023/01/07 11:07:44;;;;;;;;;;;;;;;11.49;69.94;100831.94;5005064;28;19922;-74
2023/01/07 11:10:14;;;;;;;;;;;;;;;11.49;69.86;100829.25;5005129;28;19918;-74
2023/01/07 11:12:41;;;;;;;;;;;;;;;11.50;69.62;100830.06;5001093;28;19961;-74
2023/01/07 11:15:19;;;;;;;;;;;;;;;11.50;69.92;100820.06;5003333;28;19932;-74
2023/01/07 11:17:46;;;;;;;;;;;;;;;11.51;69.72;100820.88;5009128;28;19922;-75
2023/01/07 11:20:11;;;;;;;;;;;;;;;11.50;69.70;100820.06;5009310;28;19924;-74
2023/01/07 11:22:37;;;;;;;;;;;;;;;11.52;69.93;100809.00;5005538;28;19930;-74
2023/01/07 11:25:21;;;;;;;;;;;;;;;11.51;69.96;100794.63;5012593;28;20016;-74
2023/01/07 11:27:46;;;;;;;;;;;;;;;11.51;69.76;100793.81;5004808;28;19921;-75
2023/01/07 11:30:20;;;;;;;;;;;;;;;11.51;69.70;100794.63;5010580;28;19921;-75
2023/01/07 11:33:06;;;;;;;;;;;;;;;11.51;69.75;100788.41;5010913;28;19921;-74
2023/01/07 11:35:31;;;;;;;;;;;;;;;11.51;69.37;100769.47;5007305;28;19979;-76
2023/01/07 11:37:57;;;;;;;;;;;;;;;11.53;69.40;100773.56;5009254;28;19929;-75
2023/01/07 11:40:24;;;;;;;;;;;;;;;11.54;69.33;100766.25;5007565;28;20140;-75
2023/01/07 11:42:52;;;;;;;;;;;;;;;11.55;69.10;100757.91;5008320;28;20332;-74
2023/01/07 11:45:19;;;;;;;;;;;;;;;11.57;69.33;100749.56;5010887;28;19925;-74
2023/01/07 11:47:56;;;;;;;;;;;;;;;11.56;69.33;100753.31;5004967;28;19960;-75
2023/01/07 11:50:26;;;;;;;;;;;;;;;11.58;69.48;100740.34;5004796;28;19918;-73
2023/01/07 11:52:59;;;;;;;;;;;;;;;11.59;69.36;100745.53;5010626;28;19940;-74
2023/01/07 11:55:25;;;;;;;;;;;;;;;11.60;69.49;100740.94;5009674;28;19957;-74
2023/01/07 11:57:54;;;;;;;;;;;;;;;11.59;69.46;100739.28;5007953;28;19967;-74
2023/01/07 12:00:19;;;;;;;;;;;;;;;11.61;69.51;100734.44;5013195;28;19933;-74
2023/01/07 12:02:57;;;;;;;;;;;;;;;11.61;69.29;100735.25;5011146;28;19921;-75
2023/01/07 12:05:25;;;;;;;;;;;;;;;11.62;69.50;100730.69;5010841;28;19926;-74
2023/01/07 12:07:51;;;;;;;;;;;;;;;11.62;69.39;100720.69;5009437;28;19927;-75
2023/01/07 12:10:25;;;;;;;;;;;;;;;11.63;69.41;100719.59;5008778;28;19925;-74
2023/01/07 12:12:50;;;;;;;;;;;;;;;11.63;69.23;100725.00;5009853;28;19921;-73
2023/01/07 12:15:25;;;;;;;;;;;;;;;11.64;69.27;100715.00;5009405;28;21266;-74
2023/01/07 12:18:01;;;;;;;;;;;;;;;11.65;69.44;100716.66;5006860;28;19917;-75
2023/01/07 12:20:32;;;;;;;;;;;;;;;11.65;69.33;100701.22;5007610;28;19926;-74
2023/01/07 12:22:57;;;;;;;;;;;;;;;11.65;69.15;100703.94;5006879;28;19917;-74
2023/01/07 12:25:23;;;;;;;;;;;;;;;11.64;69.27;100693.34;5009253;28;21185;-74
2023/01/07 12:27:48;;;;;;;;;;;;;;;11.65;69.29;100700.41;5005230;28;19968;-75
2023/01/07 12:30:19;;;;;;;;;;;;;;;11.63;69.13;100687.13;5010195;28;21117;-75
2023/01/07 12:33:03;;;;;;;;;;;;;;;11.64;68.96;100679.81;5009486;28;20355;-73
2023/01/07 12:35:42;;;;;;;;;;;;;;;11.63;69.02;100673.59;5008127;28;20023;-74
2023/01/07 12:38:15;;;;;;;;;;;;;;;11.64;68.87;100669.84;5008127;28;19930;-74